createdAt,value
2019-06-20T00:01:14.171Z,5.12
2019-06-20T00:03:43.692Z,6.97
2019-06-20T00:06:13.142Z,10.18
2019-06-20T00:08:42.635Z,5.40
2019-06-20T00:11:12.175Z,5.80
2019-06-20T00:13:41.725Z,6.92
2019-06-20T00:16:11.255Z,8.03
2019-06-20T00:18:40.823Z,6.87
2019-06-20T00:21:10.390Z,5.53
2019-06-20T00:23:39.956Z,5.33
2019-06-20T00:26:09.432Z,5.17
2019-06-20T00:28:38.884Z,6.90
2019-06-20T00:31:08.410Z,6.15
2019-06-20T00:33:37.894Z,5.67
2019-06-20T00:36:07.396Z,6.95
2019-06-20T00:38:36.903Z,8.03
2019-06-20T00:41:06.433Z,6.87
2019-06-20T00:43:35.884Z,7.92
2019-06-20T00:46:05.361Z,3.83
2019-06-20T00:48:34.922Z,7.58
2019-06-20T00:51:04.476Z,4.62
2019-06-20T00:53:34.058Z,3.40
2019-06-20T00:56:05.204Z,5.72
2019-06-20T00:58:34.726Z,3.98
2019-06-20T01:01:04.176Z,7.10
2019-06-20T01:03:33.719Z,4.97
2019-06-20T01:06:03.319Z,5.00
2019-06-20T01:08:32.883Z,6.25
2019-06-20T01:11:02.383Z,5.60
2019-06-20T01:13:34.145Z,5.85
2019-06-20T01:16:03.206Z,5.50
2019-06-20T01:18:32.810Z,4.22
2019-06-20T01:21:02.362Z,5.70
2019-06-20T01:23:31.920Z,4.58
2019-06-20T01:26:01.459Z,4.40
2019-06-20T01:28:30.902Z,5.60
2019-06-20T01:31:00.360Z,5.28
2019-06-20T01:33:29.991Z,4.25
2019-06-20T01:35:59.630Z,7.75
2019-06-20T01:38:29.186Z,5.55
2019-06-20T01:40:58.809Z,6.60
2019-06-20T01:43:28.391Z,5.17
2019-06-20T01:45:57.953Z,4.97
2019-06-20T01:48:27.567Z,8.83
2019-06-20T01:50:57.103Z,5.40
2019-06-20T01:53:26.620Z,6.97
2019-06-20T01:55:56.207Z,5.87
2019-06-20T01:58:25.701Z,7.75
2019-06-20T02:00:55.447Z,4.75
2019-06-20T02:03:24.977Z,4.40
2019-06-20T02:05:54.431Z,7.20
2019-06-20T02:08:23.915Z,4.55
2019-06-20T02:10:53.495Z,4.97
2019-06-20T02:13:22.975Z,7.17
2019-06-20T02:15:52.466Z,6.47
2019-06-20T02:18:21.964Z,4.90
2019-06-20T02:20:53.690Z,8.63
2019-06-20T02:23:23.370Z,5.17
2019-06-20T02:25:52.905Z,5.40
2019-06-20T02:28:22.407Z,4.72
2019-06-20T02:30:51.978Z,4.62
2019-06-20T02:33:21.465Z,5.67
2019-06-20T02:35:51.022Z,8.13
2019-06-20T02:38:20.540Z,4.83
2019-06-20T02:40:50.110Z,6.75
2019-06-20T02:43:19.657Z,6.30
2019-06-20T02:45:49.099Z,5.60
2019-06-20T02:48:18.661Z,7.65
2019-06-20T02:50:48.185Z,7.87
2019-06-20T02:53:17.604Z,4.90
2019-06-20T02:55:47.223Z,4.72
2019-06-20T02:58:16.684Z,6.03
2019-06-20T03:01:05.393Z,7.30
2019-06-20T03:03:34.892Z,5.20
2019-06-20T03:06:04.430Z,6.90
2019-06-20T03:08:33.864Z,5.65
2019-06-20T03:11:03.297Z,8.65
2019-06-20T03:13:32.826Z,7.08
2019-06-20T03:16:02.298Z,7.37
2019-06-20T03:18:31.772Z,6.35
2019-06-20T03:21:01.232Z,6.67
2019-06-20T03:23:30.773Z,8.40
2019-06-20T03:26:00.218Z,5.20
2019-06-20T03:28:29.696Z,5.67
2019-06-20T03:30:59.232Z,7.37
2019-06-20T03:33:28.736Z,7.08
2019-06-20T03:35:58.318Z,4.87
2019-06-20T03:38:27.916Z,6.78
2019-06-20T03:40:57.462Z,7.35
2019-06-20T03:43:26.962Z,5.72
2019-06-20T03:45:56.423Z,5.50
2019-06-20T03:48:25.974Z,5.90
2019-06-20T03:50:55.411Z,4.33
2019-06-20T03:53:24.931Z,5.58
2019-06-20T03:55:54.782Z,4.60
2019-06-20T03:58:24.266Z,5.92
2019-06-20T04:00:53.848Z,5.58
2019-06-20T04:03:23.431Z,5.25
2019-06-20T04:05:53.012Z,6.15
2019-06-20T04:08:22.594Z,7.90
2019-06-20T04:10:52.041Z,6.08
2019-06-20T04:13:21.504Z,6.22
2019-06-20T04:15:51.321Z,8.75
2019-06-20T04:18:20.843Z,6.40
2019-06-20T04:20:50.672Z,7.00
2019-06-20T04:23:20.129Z,5.80
2019-06-20T04:25:49.584Z,5.60
2019-06-20T04:28:19.106Z,4.55
2019-06-20T04:30:48.660Z,6.05
2019-06-20T04:33:18.292Z,5.42
2019-06-20T04:35:47.749Z,5.87
2019-06-20T04:38:17.158Z,6.37
2019-06-20T04:40:46.732Z,7.53
2019-06-20T04:43:16.170Z,4.83
2019-06-20T04:46:16.442Z,6.95
2019-06-20T04:48:45.947Z,5.28
2019-06-20T04:51:15.449Z,5.05
2019-06-20T04:53:44.938Z,6.78
2019-06-20T04:56:14.409Z,5.58
2019-06-20T04:58:43.858Z,4.08
2019-06-20T05:01:13.393Z,8.35
2019-06-20T05:03:43.755Z,5.08
2019-06-20T05:06:13.239Z,5.28
2019-06-20T05:08:42.768Z,4.67
2019-06-20T05:11:12.361Z,5.85
2019-06-20T05:13:41.826Z,6.10
2019-06-20T05:16:11.365Z,6.92
2019-06-20T05:18:40.942Z,3.80
2019-06-20T05:21:10.868Z,4.58
2019-06-20T05:23:40.395Z,8.20
2019-06-20T05:26:09.898Z,5.03
2019-06-20T05:28:39.839Z,5.87
2019-06-20T05:31:09.373Z,3.22
2019-06-20T05:33:38.907Z,4.10
2019-06-20T05:36:08.461Z,7.08
2019-06-20T05:38:37.972Z,3.70
2019-06-20T05:41:07.500Z,4.20
2019-06-20T05:43:37.161Z,6.72
2019-06-20T05:46:10.805Z,2.95
2019-06-20T05:48:37.900Z,6.08
2019-06-20T05:51:07.474Z,4.00
2019-06-20T05:53:37.015Z,3.47
2019-06-20T05:56:06.501Z,5.50
2019-06-20T05:58:36.004Z,5.17
2019-06-20T06:01:05.530Z,6.20
2019-06-20T06:03:35.071Z,5.58
2019-06-20T06:06:04.615Z,5.17
2019-06-20T06:08:34.213Z,7.60
2019-06-20T06:11:03.773Z,5.08
2019-06-20T06:13:33.214Z,4.03
2019-06-20T06:16:02.732Z,5.00
2019-06-20T06:18:32.299Z,5.95
2019-06-20T06:21:01.915Z,6.90
2019-06-20T06:23:31.482Z,7.95
2019-06-20T06:26:03.378Z,5.33
2019-06-20T06:28:32.902Z,4.05
2019-06-20T06:31:02.465Z,3.50
2019-06-20T06:33:32.010Z,5.95
2019-06-20T06:36:01.656Z,5.72
2019-06-20T06:38:31.136Z,3.98
2019-06-20T06:41:00.743Z,5.47
2019-06-20T06:43:30.292Z,4.55
2019-06-20T06:45:59.827Z,5.45
2019-06-20T06:48:29.405Z,6.72
2019-06-20T06:50:58.935Z,6.80
2019-06-20T06:53:28.436Z,4.17
2019-06-20T06:55:58.349Z,5.15
2019-06-20T06:58:28.075Z,3.50
2019-06-20T07:00:57.553Z,4.00
2019-06-20T07:03:46.048Z,4.67
2019-06-20T07:06:15.474Z,7.10
2019-06-20T07:08:45.034Z,4.20
2019-06-20T07:11:14.558Z,4.90
2019-06-20T07:13:44.006Z,3.42
2019-06-20T07:16:13.508Z,8.55
2019-06-20T07:18:43.047Z,5.30
2019-06-20T07:21:12.600Z,4.10
2019-06-20T07:23:42.132Z,5.37
2019-06-20T07:26:11.602Z,4.37
2019-06-20T07:28:41.128Z,3.77
2019-06-20T07:31:10.797Z,5.50
2019-06-20T07:33:40.329Z,5.80
2019-06-20T07:36:09.831Z,4.58
2019-06-20T07:38:39.342Z,4.97
2019-06-20T07:41:08.898Z,3.80
2019-06-20T07:43:38.413Z,5.37
2019-06-20T07:46:07.944Z,4.35
2019-06-20T07:48:37.487Z,4.42
2019-06-20T07:51:07.022Z,5.10
2019-06-20T07:53:36.531Z,7.00
2019-06-20T07:56:09.308Z,5.62
2019-06-20T07:58:37.232Z,7.08
2019-06-20T08:01:07.179Z,6.33
2019-06-20T08:03:36.676Z,4.08
2019-06-20T08:06:06.157Z,4.92
2019-06-20T08:08:35.686Z,5.00
2019-06-20T08:11:05.212Z,4.10
2019-06-20T08:13:34.800Z,4.33
2019-06-20T08:16:04.350Z,5.90
2019-06-20T08:18:33.889Z,4.78
2019-06-20T08:21:03.326Z,4.55
2019-06-20T08:23:32.885Z,6.17
2019-06-20T08:26:02.572Z,4.80
2019-06-20T08:28:32.073Z,3.77
2019-06-20T08:31:02.561Z,3.33
2019-06-20T08:33:32.072Z,2.80
2019-06-20T08:36:02.250Z,4.67
2019-06-20T08:38:31.839Z,5.08
2019-06-20T08:41:02.147Z,3.40
2019-06-20T08:43:31.854Z,4.95
2019-06-20T08:46:01.715Z,5.45
2019-06-20T08:48:31.255Z,3.27
2019-06-20T08:51:00.747Z,3.98
2019-06-20T08:53:30.250Z,3.33
2019-06-20T08:56:00.898Z,5.67
2019-06-20T08:58:30.498Z,3.98
2019-06-20T09:03:31.117Z,3.95
2019-06-20T09:08:30.117Z,3.00
2019-06-20T09:10:59.651Z,3.80
2019-06-20T09:13:29.142Z,3.95
2019-06-20T09:15:58.831Z,4.17
2019-06-20T09:18:28.363Z,3.75
2019-06-20T09:20:58.115Z,3.30
2019-06-20T09:23:27.633Z,4.42
2019-06-20T09:25:57.561Z,4.05
2019-06-20T09:28:27.083Z,5.08
2019-06-20T09:30:57.100Z,2.90
2019-06-20T09:33:26.660Z,3.85
2019-06-20T09:35:57.385Z,3.52
2019-06-20T09:38:27.011Z,3.77
2019-06-20T09:40:56.912Z,4.22
2019-06-20T09:43:27.783Z,5.22
2019-06-20T09:45:58.368Z,3.55
2019-06-20T09:48:27.924Z,2.87
2019-06-20T09:50:58.546Z,5.55
2019-06-20T09:53:28.146Z,3.92
2019-06-20T09:55:57.863Z,4.85
2019-06-20T09:58:27.431Z,4.45
2019-06-20T10:00:57.453Z,2.35
2019-06-20T10:03:26.977Z,3.35
2019-06-20T10:05:56.731Z,3.22
2019-06-20T10:08:26.306Z,2.92
2019-06-20T10:10:56.278Z,2.75
2019-06-20T10:13:25.804Z,6.05
2019-06-20T10:15:55.655Z,3.00
2019-06-20T10:18:25.254Z,3.27
2019-06-20T10:20:54.777Z,4.47
2019-06-20T10:23:24.221Z,3.85
2019-06-20T10:25:53.761Z,3.50
2019-06-20T10:28:23.766Z,2.60
2019-06-20T10:30:53.464Z,5.70
2019-06-20T10:33:22.975Z,2.90
2019-06-20T10:35:52.608Z,3.90
2019-06-20T10:38:22.169Z,3.15
2019-06-20T10:40:52.076Z,5.03
2019-06-20T10:43:21.598Z,3.75
2019-06-20T10:45:52.613Z,2.87
2019-06-20T10:48:22.155Z,5.42
2019-06-20T10:50:52.040Z,4.35
2019-06-20T10:53:21.553Z,2.90
2019-06-20T10:55:51.215Z,4.22
2019-06-20T10:58:20.645Z,3.72
2019-06-20T11:00:50.471Z,6.80
2019-06-20T11:03:20.403Z,3.55
2019-06-20T11:05:49.955Z,4.97
2019-06-20T11:08:19.793Z,3.92
2019-06-20T11:10:49.353Z,2.70
2019-06-20T11:13:18.885Z,4.28
2019-06-20T11:15:48.388Z,2.95
2019-06-20T11:18:17.910Z,3.17
2019-06-20T11:20:48.705Z,3.52
2019-06-20T11:23:18.272Z,3.15
2019-06-20T11:25:48.354Z,3.08
2019-06-20T11:28:17.894Z,4.15
2019-06-20T11:30:58.037Z,2.47
2019-06-20T11:33:18.659Z,2.77
2019-06-20T11:35:48.123Z,2.27
2019-06-20T11:38:17.547Z,4.08
2019-06-20T11:40:48.121Z,2.40
2019-06-20T11:43:17.687Z,2.30
2019-06-20T11:45:47.275Z,2.85
2019-06-20T11:48:16.792Z,2.85
2019-06-20T11:50:46.622Z,3.62
2019-06-20T11:53:16.133Z,2.55
2019-06-20T11:55:45.708Z,1.95
2019-06-20T11:58:15.214Z,3.62
2019-06-20T12:00:58.635Z,2.30
2019-06-20T12:03:16.104Z,2.83
2019-06-20T12:05:47.277Z,3.35
2019-06-20T12:08:16.821Z,3.12
2019-06-20T12:10:47.328Z,2.33
2019-06-20T12:13:16.838Z,2.55
2019-06-20T12:15:46.705Z,2.30
2019-06-20T12:18:16.383Z,3.42
2019-06-20T12:20:46.810Z,2.33
2019-06-20T12:23:16.294Z,2.58
2019-06-20T12:25:46.570Z,3.47
2019-06-20T12:28:16.214Z,3.40
2019-06-20T12:30:46.199Z,8.48
2019-06-20T12:33:15.739Z,2.98
2019-06-20T12:35:46.502Z,2.98
2019-06-20T12:38:16.280Z,3.67
2019-06-20T12:40:46.222Z,2.05
2019-06-20T12:43:15.805Z,2.37
2019-06-20T12:45:45.643Z,1.98
2019-06-20T12:48:15.549Z,2.98
2019-06-20T12:50:45.133Z,2.87
2019-06-20T12:53:14.645Z,3.22
2019-06-20T12:55:45.688Z,2.98
2019-06-20T12:58:15.299Z,2.70
2019-06-20T13:00:45.383Z,2.47
2019-06-20T13:03:16.013Z,3.72
2019-06-20T13:05:46.992Z,2.52
2019-06-20T13:08:16.595Z,2.17
2019-06-20T13:10:46.237Z,2.98
2019-06-20T13:13:15.940Z,4.40
2019-06-20T13:15:46.887Z,4.22
2019-06-20T13:18:16.656Z,3.00
2019-06-20T13:20:46.787Z,2.55
2019-06-20T13:23:16.338Z,2.52
2019-06-20T13:25:46.767Z,2.27
2019-06-20T13:28:16.296Z,6.60
2019-06-20T13:30:49.879Z,2.40
2019-06-20T13:33:17.351Z,4.80
2019-06-20T13:35:46.896Z,3.15
2019-06-20T13:38:16.431Z,3.65
2019-06-20T13:40:47.246Z,4.67
2019-06-20T13:43:16.819Z,2.98
2019-06-20T13:45:47.267Z,5.08
2019-06-20T13:48:16.816Z,3.15
2019-06-20T13:50:47.447Z,3.62
2019-06-20T13:53:16.977Z,3.55
2019-06-20T13:55:47.654Z,2.42
2019-06-20T13:58:17.237Z,3.90
2019-06-20T14:00:47.872Z,1.80
2019-06-20T14:03:17.482Z,1.95
2019-06-20T14:05:47.297Z,2.33
2019-06-20T14:08:16.781Z,3.00
2019-06-20T14:10:47.655Z,3.50
2019-06-20T14:13:19.494Z,2.67
2019-06-20T14:15:48.693Z,1.98
2019-06-20T14:18:18.313Z,2.20
2019-06-20T14:20:48.501Z,3.45
2019-06-20T14:23:18.096Z,3.27
2019-06-20T14:25:48.668Z,3.22
2019-06-20T14:28:18.280Z,4.03
2019-06-20T14:30:48.357Z,4.37
2019-06-20T14:33:17.978Z,2.00
2019-06-20T14:35:49.279Z,1.55
2019-06-20T14:38:18.728Z,1.82
2019-06-20T14:40:48.307Z,6.28
2019-06-20T14:43:17.956Z,9.65
2019-06-20T14:45:48.683Z,7.50
2019-06-20T14:48:18.891Z,7.75
2019-06-20T14:50:49.534Z,7.35
2019-06-20T14:53:19.228Z,5.05
2019-06-20T14:55:49.726Z,2.22
2019-06-20T14:58:19.468Z,7.08
2019-06-20T15:00:49.861Z,4.35
2019-06-20T15:03:19.430Z,2.35
2019-06-20T15:05:50.050Z,3.87
2019-06-20T15:08:20.087Z,2.90
2019-06-20T15:10:50.270Z,2.35
2019-06-20T15:13:19.902Z,5.80
2019-06-20T15:15:49.610Z,3.33
2019-06-20T15:18:19.149Z,3.37
2019-06-20T15:20:50.182Z,3.05
2019-06-20T15:23:19.774Z,4.42
2019-06-20T15:25:50.401Z,4.12
2019-06-20T15:28:20.266Z,2.47
2019-06-20T15:30:50.861Z,3.83
2019-06-20T15:33:20.686Z,3.65
2019-06-20T15:35:51.242Z,3.00
2019-06-20T15:38:21.585Z,2.02
2019-06-20T15:40:51.586Z,2.58
2019-06-20T15:43:21.232Z,2.75
2019-06-20T15:45:52.049Z,3.37
2019-06-20T15:48:21.667Z,2.58
2019-06-20T15:50:51.299Z,2.67
2019-06-20T15:53:20.802Z,4.95
2019-06-20T15:55:50.348Z,3.35
2019-06-20T15:58:19.892Z,4.42
2019-06-20T16:00:49.338Z,2.67
2019-06-20T16:03:19.292Z,4.60
2019-06-20T16:05:48.803Z,4.08
2019-06-20T16:08:18.244Z,4.35
2019-06-20T16:10:47.828Z,4.55
2019-06-20T16:13:17.370Z,1.85
2019-06-20T16:15:46.987Z,2.95
2019-06-20T16:18:16.569Z,3.80
2019-06-20T16:20:46.148Z,3.08
2019-06-20T16:23:16.080Z,3.12
2019-06-20T16:25:45.540Z,2.17
2019-06-20T16:28:14.958Z,2.37
2019-06-20T16:30:44.408Z,1.50
2019-06-20T16:33:24.708Z,4.40
2019-06-20T16:35:45.185Z,1.70
2019-06-20T16:38:14.672Z,2.98
2019-06-20T16:40:46.228Z,1.70
2019-06-20T16:43:17.130Z,2.77
2019-06-20T16:45:46.588Z,4.10
2019-06-20T16:48:16.154Z,1.95
2019-06-20T16:50:45.842Z,1.85
2019-06-20T16:53:15.335Z,1.40
2019-06-20T16:55:45.331Z,1.72
2019-06-20T16:58:14.839Z,1.92
2019-06-20T17:00:44.499Z,3.95
2019-06-20T17:03:14.063Z,2.90
2019-06-20T17:05:43.570Z,1.92
2019-06-20T17:08:13.117Z,1.60
2019-06-20T17:10:42.940Z,1.32
2019-06-20T17:13:12.492Z,2.50
2019-06-20T17:15:42.879Z,2.70
2019-06-20T17:18:12.339Z,4.42
2019-06-20T17:20:41.825Z,3.33
2019-06-20T17:23:11.437Z,3.70
2019-06-20T17:25:41.039Z,2.08
2019-06-20T17:28:10.529Z,1.62
2019-06-20T17:30:40.052Z,1.55
2019-06-20T17:33:09.575Z,0.78
2019-06-20T17:35:39.288Z,1.57
2019-06-20T17:38:09.150Z,1.98
2019-06-20T17:40:39.209Z,2.05
2019-06-20T17:43:08.833Z,1.60
2019-06-20T17:45:38.373Z,0.93
2019-06-20T17:48:07.973Z,1.57
2019-06-20T17:50:37.502Z,1.30
2019-06-20T17:53:06.967Z,1.20
2019-06-20T17:55:36.535Z,1.30
2019-06-20T17:58:06.023Z,0.90
2019-06-20T18:00:35.945Z,2.92
2019-06-20T18:03:05.513Z,3.20
2019-06-20T18:05:35.073Z,2.08
2019-06-20T18:08:14.525Z,2.80
2019-06-20T18:10:35.997Z,2.00
2019-06-20T18:13:05.856Z,2.25
2019-06-20T18:15:35.440Z,1.05
2019-06-20T18:18:05.151Z,1.42
2019-06-20T18:20:34.755Z,1.77
2019-06-20T18:23:04.458Z,1.50
2019-06-20T18:25:34.019Z,1.60
2019-06-20T18:28:03.779Z,2.17
2019-06-20T18:30:42.259Z,1.47
2019-06-20T18:33:11.878Z,2.55
2019-06-20T18:35:41.592Z,1.80
2019-06-20T18:38:11.440Z,3.65
2019-06-20T18:40:42.234Z,4.67
2019-06-20T18:43:11.885Z,1.92
2019-06-20T18:45:41.425Z,2.15
2019-06-20T18:48:11.274Z,1.87
2019-06-20T18:50:40.827Z,1.77
2019-06-20T18:53:10.323Z,4.70
2019-06-20T18:55:39.774Z,2.20
2019-06-20T18:58:09.306Z,3.45
2019-06-20T19:00:38.828Z,3.00
2019-06-20T19:03:08.333Z,3.67
2019-06-20T19:08:12.802Z,1.70
2019-06-20T19:10:42.353Z,2.08
2019-06-20T19:13:13.093Z,1.98
2019-06-20T19:15:42.741Z,1.75
2019-06-20T19:18:12.292Z,3.55
2019-06-20T19:20:41.827Z,2.42
2019-06-20T19:23:11.357Z,1.70
2019-06-20T19:25:40.900Z,4.85
2019-06-20T19:28:10.487Z,2.10
2019-06-20T19:30:47.396Z,3.30
2019-06-20T19:33:16.908Z,2.22
2019-06-20T19:35:46.474Z,1.72
2019-06-20T19:38:15.978Z,3.67
2019-06-20T19:40:47.080Z,1.82
2019-06-20T19:43:19.947Z,1.60
2019-06-20T19:45:49.450Z,2.02
2019-06-20T19:48:18.983Z,1.67
2019-06-20T19:50:50.972Z,1.27
2019-06-20T19:53:20.533Z,1.40
2019-06-20T19:55:50.050Z,2.85
2019-06-20T19:58:19.679Z,2.12
2019-06-20T20:00:49.206Z,1.92
2019-06-20T20:03:18.728Z,2.02
2019-06-20T20:05:48.288Z,2.08
2019-06-20T20:08:17.800Z,2.37
2019-06-20T20:10:47.963Z,2.42
2019-06-20T20:13:17.777Z,2.10
2019-06-20T20:15:47.849Z,2.75
2019-06-20T20:18:17.682Z,2.42
2019-06-20T20:20:47.861Z,2.40
2019-06-20T20:23:17.478Z,2.52
2019-06-20T20:25:47.150Z,3.80
2019-06-20T20:28:16.665Z,2.77
2019-06-20T20:30:46.143Z,4.33
2019-06-20T20:33:15.804Z,2.27
2019-06-20T20:35:45.299Z,4.15
2019-06-20T20:38:14.937Z,3.75
2019-06-20T20:40:44.870Z,2.17
2019-06-20T20:43:14.452Z,2.58
2019-06-20T20:45:45.734Z,2.08
2019-06-20T20:48:17.740Z,2.45
2019-06-20T20:50:47.288Z,2.47
2019-06-20T20:53:21.995Z,2.62
2019-06-20T20:55:51.517Z,3.12
2019-06-20T20:58:21.033Z,3.40
2019-06-20T21:01:09.821Z,6.40
2019-06-20T21:03:39.331Z,4.55
2019-06-20T21:06:08.760Z,2.87
2019-06-20T21:08:38.341Z,3.15
2019-06-20T21:11:07.836Z,3.22
2019-06-20T21:13:37.314Z,3.05
2019-06-20T21:16:06.859Z,3.05
2019-06-20T21:18:36.310Z,2.90
2019-06-20T21:21:05.898Z,3.00
2019-06-20T21:23:35.398Z,2.95
2019-06-20T21:26:04.840Z,3.40
2019-06-20T21:28:34.404Z,3.72
2019-06-20T21:31:03.945Z,2.52
2019-06-20T21:33:33.437Z,4.15
2019-06-20T21:36:08.573Z,3.75
2019-06-20T21:38:34.621Z,4.28
2019-06-20T21:41:04.141Z,4.70
2019-06-20T21:43:33.632Z,2.67
2019-06-20T21:46:05.987Z,4.35
2019-06-20T21:48:34.324Z,3.95
2019-06-20T21:51:03.946Z,3.70
2019-06-20T21:53:33.428Z,5.28
2019-06-20T21:56:02.899Z,5.08
2019-06-20T21:58:32.387Z,3.92
2019-06-20T22:01:02.520Z,5.40
2019-06-20T22:03:32.121Z,4.72
2019-06-20T22:06:01.626Z,3.83
2019-06-20T22:08:31.273Z,3.50
2019-06-20T22:11:00.779Z,3.52
2019-06-20T22:13:30.215Z,3.80
2019-06-20T22:15:59.745Z,4.58
2019-06-20T22:18:29.273Z,4.20
2019-06-20T22:20:58.768Z,4.25
2019-06-20T22:23:28.327Z,5.42
2019-06-20T22:25:57.862Z,4.42
2019-06-20T22:28:27.404Z,4.80
2019-06-20T22:30:57.451Z,5.58
2019-06-20T22:33:26.955Z,4.70
2019-06-20T22:35:56.499Z,6.37
2019-06-20T22:38:26.035Z,5.47
2019-06-20T22:40:55.484Z,4.90
2019-06-20T22:43:24.931Z,5.85
2019-06-20T22:45:54.456Z,4.75
2019-06-20T22:48:23.961Z,5.30
2019-06-20T22:50:53.475Z,5.55
2019-06-20T22:53:23.039Z,4.42
2019-06-20T22:55:52.561Z,4.20
2019-06-20T22:58:22.118Z,6.75
2019-06-20T23:00:51.588Z,3.90
2019-06-20T23:03:21.108Z,4.25
2019-06-20T23:05:50.572Z,4.37
2019-06-20T23:08:20.084Z,4.75
2019-06-20T23:10:49.584Z,4.67
2019-06-20T23:13:19.176Z,4.15
2019-06-20T23:15:49.781Z,3.70
2019-06-20T23:18:27.215Z,6.35
2019-06-20T23:21:04.561Z,4.95
2019-06-20T23:23:32.551Z,5.75
2019-06-20T23:26:03.711Z,4.83
2019-06-20T23:28:36.207Z,7.22
2019-06-20T23:31:05.920Z,6.00
2019-06-20T23:33:35.431Z,6.55
2019-06-20T23:36:04.929Z,4.25
2019-06-20T23:38:34.475Z,4.47
2019-06-20T23:41:04.007Z,3.98
2019-06-20T23:43:33.946Z,5.70
2019-06-20T23:46:03.643Z,3.80
2019-06-20T23:48:33.174Z,3.92
2019-06-20T23:51:02.706Z,4.62
2019-06-20T23:53:32.146Z,6.75
2019-06-20T23:56:01.640Z,4.65
2019-06-20T23:58:35.725Z,3.75
